METAR Data
IDs: Format: Raw Decoded Include TAF

Data at: 0035 UTC 25 Apr 2019

METAR for:KMIW (Marshalltown Muni, IA, US)
Text:KMIW 242353Z AUTO 18006KT 10SM CLR 18/11 A2979 RMK AO2 SLP088 T01830111 10183 20144 58016
Temperature: 18.3°C ( 65°F)
Dewpoint: 11.1°C ( 52°F) [RH = 63%]
Pressure (altimeter):29.79 inches Hg (1008.9 mb) [Sea level pressure: 1008.8 mb]
Winds:from the S (180 degrees) at 7 MPH (6 knots; 3.1 m/s)
Visibility:10 or more sm (16+ km)
Ceiling:at least 12,000 feet AGL
Clouds:sky clear below 12,000 feet AGL
QC Flag:automated observation with no human augmentation